Time;durP1;ratioP1;P1;durP2;ratioP2;P2;SDS_P1;SDS_P2;PMS_P1;PMS_P2;Temp;Humidity;BMP_temperature;BMP_pressure;BME280_temperature;BME280_humidity;BME280_pressure;Samples;Min_cycle;Max_cycle;Signal;HPM_P1;HPM_P2
2022/01/20 00:00:17;;;;;;;1.70;1.33;;;4.20;99.90;;;;;;4994542;28;20470;-74
2022/01/20 00:02:43;;;;;;;1.80;1.70;;;4.20;99.90;;;;;;4994263;28;20454;-73
2022/01/20 00:08:08;;;;;;;1.97;1.77;;;4.10;99.90;;;;;;4993436;28;20184;-73
2022/01/20 00:27:04;;;;;;;3.70;1.20;;;3.90;99.90;;;;;;5012329;28;20535;-72
2022/01/20 00:29:32;;;;;;;1.53;1.07;;;3.90;99.90;;;;;;4999428;28;20779;-72
2022/01/20 00:32:18;;;;;;;4.50;1.33;;;4.00;99.90;;;;;;4992367;28;20420;-72
2022/01/20 00:35:29;;;;;;;1.20;0.97;;;4.00;99.90;;;;;;4992459;28;20412;-72
2022/01/20 00:37:32;;;;;;;2.23;1.23;;;4.00;99.90;;;;;;4981980;28;20420;-73
2022/01/20 00:39:58;;;;;;;1.83;1.73;;;4.00;99.90;;;;;;4993075;28;20434;-72
2022/01/20 00:42:25;;;;;;;2.27;1.33;;;4.00;99.90;;;;;;5010504;28;20208;-72
2022/01/20 00:44:51;;;;;;;1.60;1.30;;;4.00;99.90;;;;;;5011688;28;20967;-72
2022/01/20 00:47:18;;;;;;;3.03;0.93;;;4.10;99.90;;;;;;5011956;28;20415;-73
2022/01/20 00:49:44;;;;;;;3.80;2.93;;;4.10;99.90;;;;;;5011966;28;20415;-73
2022/01/20 00:52:10;;;;;;;1.33;1.10;;;4.10;99.90;;;;;;5012265;28;20430;-73
2022/01/20 00:54:36;;;;;;;0.97;0.90;;;4.10;99.90;;;;;;4993772;28;20518;-72
2022/01/20 00:57:02;;;;;;;1.87;1.67;;;4.20;99.90;;;;;;5012161;28;20176;-72
2022/01/20 00:59:29;;;;;;;2.40;0.90;;;4.20;99.90;;;;;;5012036;28;20203;-72
2022/01/20 01:01:56;;;;;;;4.10;2.80;;;4.10;99.90;;;;;;5011768;28;20625;-73
2022/01/20 01:04:21;;;;;;;1.60;0.90;;;4.10;99.90;;;;;;5011972;28;20821;-74
2022/01/20 01:07:08;;;;;;;1.87;1.77;;;4.10;99.90;;;;;;5011966;28;20461;-73
2022/01/20 01:09:34;;;;;;;10.40;2.30;;;4.10;99.90;;;;;;5011916;28;20167;-73
2022/01/20 01:12:04;;;;;;;6.60;1.17;;;4.00;99.90;;;;;;5011976;28;20526;-73
2022/01/20 01:14:32;;;;;;;0.70;0.70;;;4.00;99.90;;;;;;5011901;28;20407;-73
2022/01/20 01:24:40;;;;;;;7.13;1.00;;;3.80;99.90;;;;;;5011924;28;20407;-73
2022/01/20 01:27:07;;;;;;;1.00;0.90;;;3.70;99.90;;;;;;5011957;28;20416;-73
2022/01/20 01:29:58;;;;;;;5.70;2.00;;;3.70;99.90;;;;;;5011703;28;20407;-72
2022/01/20 01:35:26;;;;;;;3.13;2.60;;;3.70;99.90;;;;;;4978366;28;20889;-72
2022/01/20 01:40:23;;;;;;;2.50;1.10;;;3.60;99.90;;;;;;5012071;28;20791;-73
2022/01/20 01:42:51;;;;;;;5.13;1.10;;;3.60;99.90;;;;;;5011686;28;20435;-74
2022/01/20 01:45:33;;;;;;;1.40;1.30;;;3.50;99.90;;;;;;5011615;28;20462;-73
2022/01/20 01:48:00;;;;;;;3.23;1.00;;;3.50;99.90;;;;;;5011725;28;20409;-73
2022/01/20 01:50:26;;;;;;;2.53;0.93;;;3.50;99.90;;;;;;5011569;28;20419;-73
2022/01/20 01:52:54;;;;;;;5.27;2.30;;;3.40;99.90;;;;;;5011501;28;20518;-73
2022/01/20 01:55:20;;;;;;;1.20;1.13;;;3.30;99.90;;;;;;5011376;28;20419;-72
2022/01/20 01:57:46;;;;;;;0.83;0.80;;;3.30;99.90;;;;;;5011629;28;20465;-74
2022/01/20 02:00:12;;;;;;;9.57;1.70;;;3.30;99.90;;;;;;5011339;28;20502;-74
2022/01/20 02:02:39;;;;;;;4.73;1.20;;;3.30;99.90;;;;;;5011171;28;20208;-74
2022/01/20 02:05:06;;;;;;;1.17;1.07;;;3.30;99.90;;;;;;5011586;28;20457;-73
2022/01/20 02:18:25;;;;;;;8.03;1.63;;;3.10;99.90;;;;;;5015016;28;20434;-73
2022/01/20 02:20:51;;;;;;;4.83;1.27;;;3.20;99.90;;;;;;5014751;28;20407;-74
2022/01/20 02:23:17;;;;;;;2.57;1.57;;;3.20;99.90;;;;;;5014502;28;20807;-73
2022/01/20 02:25:43;;;;;;;6.03;1.73;;;3.10;99.90;;;;;;5014406;28;20458;-73
2022/01/20 02:28:10;;;;;;;1.53;1.43;;;3.10;99.90;;;;;;4996901;28;20415;-73
2022/01/20 02:30:39;;;;;;;15.17;1.43;;;3.10;99.90;;;;;;5014575;28;20165;-73
2022/01/20 02:33:13;;;;;;;1.97;1.53;;;3.20;99.90;;;;;;5014395;28;20430;-73
2022/01/20 02:35:43;;;;;;;8.40;2.23;;;3.20;99.90;;;;;;4996711;28;20415;-73
2022/01/20 02:38:18;;;;;;;4.00;1.87;;;3.10;99.90;;;;;;5014491;28;20918;-73
2022/01/20 02:45:56;;;;;;;2.80;1.67;;;2.90;99.90;;;;;;5014425;28;20598;-73
2022/01/20 02:48:22;;;;;;;1.53;1.23;;;3.00;99.90;;;;;;5014060;28;20403;-73
2022/01/20 02:50:48;;;;;;;0.80;0.80;;;2.90;99.90;;;;;;5014127;28;20408;-73
2022/01/20 02:53:13;;;;;;;2.00;1.17;;;2.90;99.90;;;;;;5014069;28;20275;-73
2022/01/20 02:55:39;;;;;;;2.03;1.60;;;2.90;99.90;;;;;;5013973;28;20168;-73
2022/01/20 02:58:06;;;;;;;0.70;0.70;;;2.90;99.90;;;;;;5014071;28;20176;-73
2022/01/20 03:00:34;;;;;;;0.83;0.83;;;2.90;99.90;;;;;;5013999;28;20206;-73
2022/01/20 03:03:00;;;;;;;0.90;0.90;;;2.90;99.90;;;;;;5013730;28;20477;-73
2022/01/20 03:05:26;;;;;;;0.60;0.60;;;2.80;99.90;;;;;;5013751;28;20498;-73
2022/01/20 03:07:52;;;;;;;1.03;0.77;;;2.80;99.90;;;;;;5013983;28;20442;-73
2022/01/20 03:10:18;;;;;;;0.80;0.80;;;2.80;99.90;;;;;;5013847;28;20454;-72
2022/01/20 03:12:44;;;;;;;1.53;0.90;;;2.80;99.90;;;;;;5016046;28;20658;-72
2022/01/20 03:15:10;;;;;;;1.57;1.47;;;2.80;99.90;;;;;;5014210;28;20415;-73
2022/01/20 03:17:35;;;;;;;3.23;1.63;;;2.80;99.90;;;;;;5013234;28;20961;-73
2022/01/20 03:20:01;;;;;;;3.50;0.70;;;2.70;99.90;;;;;;5013442;28;20411;-73
2022/01/20 03:22:26;;;;;;;1.33;1.00;;;2.70;99.90;;;;;;5013224;28;20204;-73
2022/01/20 03:24:53;;;;;;;3.10;1.10;;;2.80;99.90;;;;;;5013458;28;20196;-73
2022/01/20 03:27:19;;;;;;;2.40;1.07;;;2.80;99.90;;;;;;5013559;28;20662;-73
2022/01/20 03:29:44;;;;;;;3.60;1.13;;;2.80;99.90;;;;;;5013694;28;20553;-73
2022/01/20 03:32:09;;;;;;;0.80;0.63;;;2.90;99.90;;;;;;5013024;28;20191;-74
2022/01/20 03:34:35;;;;;;;0.80;0.80;;;2.90;99.90;;;;;;5013410;28;20247;-74
2022/01/20 03:37:03;;;;;;;0.87;0.87;;;2.80;99.90;;;;;;5013159;28;20165;-75
2022/01/20 03:39:29;;;;;;;2.00;1.10;;;2.70;99.90;;;;;;5015879;28;20219;-74
2022/01/20 03:41:55;;;;;;;4.83;1.27;;;2.70;99.90;;;;;;5014356;28;20473;-75
2022/01/20 03:44:20;;;;;;;0.90;0.77;;;2.70;99.90;;;;;;5014685;28;20435;-74
2022/01/20 03:46:46;;;;;;;1.47;1.37;;;2.60;99.90;;;;;;5012724;28;20577;-74
2022/01/20 03:49:35;;;;;;;1.60;1.10;;;2.60;99.90;;;;;;5013087;28;20156;-73
2022/01/20 03:52:00;;;;;;;1.37;1.20;;;2.70;99.90;;;;;;5012988;28;20196;-74
2022/01/20 03:54:26;;;;;;;2.00;1.30;;;2.70;99.90;;;;;;5012874;28;20415;-73
2022/01/20 03:56:52;;;;;;;2.77;1.13;;;2.70;99.90;;;;;;5012710;28;20698;-74
2022/01/20 03:59:17;;;;;;;3.57;3.23;;;2.80;99.90;;;;;;5012782;28;20180;-74
2022/01/20 04:01:43;;;;;;;4.00;1.23;;;2.80;99.90;;;;;;5012397;28;20766;-74
2022/01/20 04:04:08;;;;;;;5.90;2.47;;;2.80;99.90;;;;;;5012754;28;20183;-74
2022/01/20 04:06:34;;;;;;;2.73;1.00;;;2.80;99.90;;;;;;5012484;28;20188;-74
2022/01/20 04:08:59;;;;;;;1.83;1.13;;;2.90;99.90;;;;;;5006636;28;20176;-74
2022/01/20 04:11:28;;;;;;;2.67;1.43;;;2.90;99.90;;;;;;5012558;28;20168;-74
2022/01/20 04:13:54;;;;;;;2.17;1.33;;;2.90;99.90;;;;;;5012480;28;20165;-74
2022/01/20 04:16:34;;;;;;;2.23;2.13;;;2.90;99.90;;;;;;5012752;28;20414;-73
2022/01/20 04:19:01;;;;;;;1.50;1.40;;;3.00;99.90;;;;;;5012653;28;20792;-73
2022/01/20 04:21:29;;;;;;;4.87;2.30;;;3.00;99.90;;;;;;5012355;28;20423;-74
2022/01/20 04:23:56;;;;;;;1.00;1.00;;;3.00;99.90;;;;;;5012369;28;20827;-74
2022/01/20 04:26:23;;;;;;;0.80;0.70;;;3.00;99.90;;;;;;5012320;28;20969;-73
2022/01/20 04:28:53;;;;;;;0.60;0.60;;;2.70;99.90;;;;;;5011439;28;20399;-73
2022/01/20 04:31:19;;;;;;;0.80;0.80;;;1.80;99.90;;;;;;5012531;28;20430;-71
2022/01/20 04:33:45;;;;;;;0.60;0.60;;;1.60;99.90;;;;;;5012270;28;20917;-72
2022/01/20 04:36:10;;;;;;;0.70;0.70;;;1.40;99.90;;;;;;5012244;28;20421;-71
2022/01/20 04:38:36;;;;;;;1.00;0.90;;;1.10;99.90;;;;;;5012273;28;20179;-73
2022/01/20 04:41:02;;;;;;;0.70;0.70;;;1.00;99.90;;;;;;5012097;28;20261;-72
2022/01/20 04:43:28;;;;;;;0.83;0.83;;;0.90;99.90;;;;;;5011993;28;20215;-72
2022/01/20 04:46:05;;;;;;;1.97;1.63;;;0.80;99.90;;;;;;5012088;28;20232;-71
2022/01/20 04:48:49;;;;;;;0.80;0.80;;;0.80;99.90;;;;;;5012145;28;20815;-71
2022/01/20 04:57:06;;;;;;;0.70;0.70;;;0.70;99.90;;;;;;5012310;28;20390;-71
2022/01/20 04:59:32;;;;;;;6.20;0.90;;;0.70;99.90;;;;;;5012046;28;20510;-72
2022/01/20 05:01:58;;;;;;;0.70;0.70;;;0.70;99.90;;;;;;5011529;28;20459;-71
2022/01/20 05:04:25;;;;;;;0.60;0.60;;;0.70;99.90;;;;;;5024521;23;20497;-69
2022/01/20 05:06:53;;;;;;;0.70;0.70;;;0.70;99.90;;;;;;5011240;28;20669;-69
2022/01/20 05:09:21;;;;;;;1.93;1.20;;;0.80;99.90;;;;;;5011507;28;20498;-69
2022/01/20 05:11:52;;;;;;;0.73;0.73;;;0.80;99.90;;;;;;5011319;28;20945;-69
2022/01/20 05:14:18;;;;;;;1.20;1.10;;;0.90;99.90;;;;;;5011343;28;20570;-69
2022/01/20 05:16:43;;;;;;;0.70;0.70;;;1.00;99.90;;;;;;5011431;28;20964;-69
2022/01/20 05:19:09;;;;;;;1.20;1.10;;;1.10;99.90;;;;;;5011447;28;20172;-69
2022/01/20 05:21:35;;;;;;;0.70;0.70;;;1.20;99.90;;;;;;5011572;28;20192;-69
2022/01/20 05:24:00;;;;;;;2.00;1.43;;;1.20;99.90;;;;;;5013077;28;20202;-69
2022/01/20 05:26:26;;;;;;;0.73;0.73;;;1.30;99.90;;;;;;5013178;28;20211;-69
2022/01/20 05:28:51;;;;;;;1.27;1.17;;;1.30;99.90;;;;;;5012212;28;20471;-69
2022/01/20 05:31:17;;;;;;;6.00;2.17;;;1.30;99.90;;;;;;5011352;28;20235;-69
2022/01/20 05:33:42;;;;;;;2.30;0.70;;;1.30;99.90;;;;;;5011171;28;20558;-69
2022/01/20 05:36:08;;;;;;;0.60;0.60;;;1.30;99.90;;;;;;4993486;28;20184;-69
2022/01/20 05:38:33;;;;;;;0.70;0.70;;;1.30;99.90;;;;;;5011354;28;20184;-69
2022/01/20 05:40:59;;;;;;;0.90;0.90;;;1.30;99.90;;;;;;5014877;28;20638;-69
2022/01/20 05:43:24;;;;;;;0.80;0.80;;;1.30;99.90;;;;;;5014678;28;20195;-69
2022/01/20 05:45:50;;;;;;;3.03;0.80;;;1.30;99.90;;;;;;5014639;28;20207;-69
2022/01/20 05:48:17;;;;;;;0.70;0.70;;;1.40;99.90;;;;;;5014850;28;20161;-69
2022/01/20 05:50:46;;;;;;;0.60;0.60;;;1.40;99.90;;;;;;5014883;28;20251;-69
2022/01/20 05:53:11;;;;;;;1.73;1.63;;;1.50;99.90;;;;;;5016879;28;20419;-69
2022/01/20 05:55:37;;;;;;;2.27;1.20;;;1.60;99.90;;;;;;5034350;28;20417;-69
2022/01/20 05:58:05;;;;;;;1.27;1.17;;;1.60;99.90;;;;;;5034649;28;20282;-69
2022/01/20 06:00:32;;;;;;;3.63;2.53;;;1.60;99.90;;;;;;5034415;28;20890;-69
2022/01/20 06:05:41;;;;;;;1.40;1.30;;;1.70;99.90;;;;;;5034273;28;20576;-70
2022/01/20 06:08:07;;;;;;;6.80;1.67;;;1.70;99.90;;;;;;5034417;28;20948;-69
2022/01/20 06:10:33;;;;;;;4.13;1.03;;;1.80;99.90;;;;;;5013984;28;20299;-70
2022/01/20 06:12:59;;;;;;;3.40;0.93;;;1.90;99.90;;;;;;5002596;28;20950;-70
2022/01/20 06:15:24;;;;;;;0.60;0.60;;;1.90;99.90;;;;;;4994736;28;20183;-70
2022/01/20 06:17:50;;;;;;;2.40;2.30;;;1.90;99.90;;;;;;5012524;28;20502;-70
2022/01/20 06:20:16;;;;;;;1.00;1.00;;;1.90;99.90;;;;;;5014123;28;20181;-70
2022/01/20 06:22:41;;;;;;;1.00;0.80;;;1.80;99.90;;;;;;5014156;28;20172;-69
2022/01/20 06:25:08;;;;;;;2.23;2.03;;;1.70;99.90;;;;;;5013737;28;20690;-69
2022/01/20 06:27:34;;;;;;;1.17;0.87;;;1.60;99.90;;;;;;5014094;28;20178;-69
2022/01/20 06:30:00;;;;;;;0.60;0.60;;;1.50;99.90;;;;;;5006654;28;20424;-70
2022/01/20 06:32:26;;;;;;;1.00;1.00;;;1.50;99.90;;;;;;5013657;28;20412;-70
2022/01/20 06:34:51;;;;;;;0.77;0.77;;;1.40;99.90;;;;;;5013822;28;20461;-70
2022/01/20 06:37:17;;;;;;;0.60;0.60;;;1.40;99.90;;;;;;5013965;28;20180;-70
2022/01/20 06:39:42;;;;;;;0.70;0.70;;;1.50;99.90;;;;;;5013863;28;20164;-69
2022/01/20 06:42:08;;;;;;;1.10;1.10;;;1.40;99.90;;;;;;5013866;28;20168;-70
2022/01/20 06:44:33;;;;;;;0.67;0.67;;;1.40;99.90;;;;;;5013629;28;20192;-71
2022/01/20 06:46:58;;;;;;;1.70;0.70;;;1.30;99.90;;;;;;5013843;28;20583;-70
2022/01/20 06:49:24;;;;;;;3.00;1.20;;;1.30;99.90;;;;;;5011575;28;20171;-70
2022/01/20 06:51:50;;;;;;;1.47;1.17;;;1.20;99.90;;;;;;5012122;28;20226;-70
2022/01/20 06:54:16;;;;;;;2.83;2.03;;;1.30;99.90;;;;;;5013322;28;20189;-70
2022/01/20 06:56:42;;;;;;;0.70;0.70;;;1.30;99.90;;;;;;5013372;28;20227;-70
2022/01/20 06:59:13;;;;;;;0.70;0.70;;;1.20;99.90;;;;;;5013293;28;20944;-70
2022/01/20 07:01:39;;;;;;;1.87;0.70;;;1.30;99.90;;;;;;5013207;28;20263;-70
2022/01/20 07:04:05;;;;;;;0.80;0.80;;;1.20;99.90;;;;;;5013124;28;21020;-70
2022/01/20 07:06:30;;;;;;;0.60;0.60;;;1.30;99.90;;;;;;5013177;28;20450;-70
2022/01/20 07:08:56;;;;;;;0.70;0.70;;;1.30;99.90;;;;;;5012976;28;20168;-70
2022/01/20 07:11:21;;;;;;;1.07;0.80;;;1.30;99.90;;;;;;5013076;28;20180;-70
2022/01/20 07:13:47;;;;;;;0.70;0.70;;;0.90;99.90;;;;;;5012946;28;20192;-70
2022/01/20 07:16:12;;;;;;;0.70;0.70;;;0.70;99.90;;;;;;5013266;28;20187;-70
2022/01/20 07:18:38;;;;;;;0.90;0.90;;;0.60;99.90;;;;;;5013284;28;20176;-70
2022/01/20 07:21:03;;;;;;;0.70;0.70;;;0.50;99.90;;;;;;5013335;28;20207;-70
2022/01/20 07:23:29;;;;;;;0.70;0.70;;;0.30;99.90;;;;;;5012627;28;20196;-70
2022/01/20 07:25:54;;;;;;;1.10;0.93;;;0.20;99.90;;;;;;5012838;28;20637;-69
2022/01/20 07:28:19;;;;;;;0.70;0.70;;;0.20;99.90;;;;;;5012688;28;20187;-70
2022/01/20 07:30:45;;;;;;;0.70;0.70;;;0.20;99.90;;;;;;5012916;28;20215;-69
2022/01/20 07:33:11;;;;;;;0.83;0.73;;;0.10;99.90;;;;;;5012464;28;20670;-69
2022/01/20 07:35:37;;;;;;;0.60;0.60;;;0.10;99.90;;;;;;5012472;28;20184;-69
2022/01/20 07:38:03;;;;;;;1.50;1.40;;;0.10;99.90;;;;;;5012360;28;20187;-69
2022/01/20 07:40:31;;;;;;;0.80;0.80;;;0.10;99.90;;;;;;5013003;28;20415;-69
2022/01/20 07:42:56;;;;;;;0.70;0.70;;;0.10;99.90;;;;;;5012771;28;20938;-69
2022/01/20 07:45:22;;;;;;;4.20;1.33;;;0.10;99.90;;;;;;5012249;28;20459;-69
2022/01/20 07:47:47;;;;;;;8.00;1.20;;;0.30;99.90;;;;;;5012694;28;20177;-69
2022/01/20 07:50:13;;;;;;;0.70;0.70;;;0.30;99.90;;;;;;5012511;28;20255;-69
2022/01/20 07:52:39;;;;;;;0.90;0.90;;;0.40;99.90;;;;;;5012241;28;20199;-69
2022/01/20 07:55:05;;;;;;;2.67;0.83;;;0.40;99.90;;;;;;5029836;28;20211;-69
2022/01/20 07:57:30;;;;;;;2.23;2.13;;;0.50;99.90;;;;;;5032080;28;20305;-69
2022/01/20 07:59:55;;;;;;;1.17;1.07;;;0.60;99.90;;;;;;5031989;28;20431;-72
2022/01/20 08:02:21;;;;;;;0.80;0.80;;;0.60;99.90;;;;;;4999508;28;20184;-72
2022/01/20 08:04:46;;;;;;;8.00;3.43;;;0.70;99.90;;;;;;5011953;28;20269;-72
2022/01/20 08:07:12;;;;;;;1.10;1.10;;;0.80;99.90;;;;;;5003690;28;20636;-70
2022/01/20 08:09:38;;;;;;;1.50;1.33;;;0.90;99.90;;;;;;4993213;28;20181;-69
2022/01/20 08:12:05;;;;;;;0.70;0.70;;;1.00;99.90;;;;;;4992549;28;20280;-69
2022/01/20 08:14:30;;;;;;;2.70;0.90;;;1.10;99.90;;;;;;4992460;28;20435;-69
2022/01/20 08:16:56;;;;;;;0.97;0.87;;;1.10;99.90;;;;;;4992449;28;20416;-69
2022/01/20 08:19:21;;;;;;;2.40;1.10;;;1.20;99.90;;;;;;4997730;28;20207;-69
2022/01/20 08:21:47;;;;;;;3.07;1.83;;;1.30;99.90;;;;;;5011638;28;20172;-69
2022/01/20 08:24:12;;;;;;;2.57;2.40;;;1.40;99.90;;;;;;5011772;28;20192;-69
2022/01/20 08:26:38;;;;;;;0.93;0.87;;;1.40;99.90;;;;;;5011618;28;20571;-69
2022/01/20 08:29:03;;;;;;;1.63;1.53;;;1.40;99.90;;;;;;5009211;28;20196;-69
2022/01/20 08:31:29;;;;;;;0.90;0.90;;;1.40;99.90;;;;;;5011440;28;20188;-69
2022/01/20 08:33:55;;;;;;;1.17;1.17;;;1.40;99.90;;;;;;5011432;28;20242;-69
2022/01/20 08:36:20;;;;;;;0.80;0.70;;;1.40;99.90;;;;;;5011069;28;20196;-69
2022/01/20 08:38:46;;;;;;;2.33;1.20;;;1.50;99.90;;;;;;5011628;28;20215;-69
2022/01/20 08:41:11;;;;;;;1.40;1.30;;;1.40;99.90;;;;;;5011484;28;20194;-69
2022/01/20 08:43:38;;;;;;;1.13;1.03;;;1.40;99.90;;;;;;5011203;28;20220;-69
2022/01/20 08:46:09;;;;;;;4.97;0.83;;;1.50;99.90;;;;;;5011148;28;20196;-69
2022/01/20 08:48:36;;;;;;;1.90;1.10;;;1.80;99.90;;;;;;5011603;28;20419;-69
2022/01/20 08:51:03;;;;;;;0.60;0.60;;;1.70;99.90;;;;;;5011281;28;20415;-70
2022/01/20 08:53:31;;;;;;;1.60;1.50;;;1.90;99.90;;;;;;5015791;28;20450;-69
2022/01/20 08:55:57;;;;;;;0.70;0.70;;;1.90;99.90;;;;;;5008077;28;20938;-71
2022/01/20 08:58:22;;;;;;;0.60;0.60;;;1.90;99.90;;;;;;5011426;28;20419;-71
2022/01/20 09:00:48;;;;;;;0.70;0.70;;;2.00;99.90;;;;;;5005745;28;20418;-70
2022/01/20 09:03:13;;;;;;;0.90;0.90;;;2.00;99.90;;;;;;5011438;28;20203;-69
2022/01/20 09:05:39;;;;;;;0.70;0.70;;;2.20;99.90;;;;;;5011100;28;20298;-70
2022/01/20 09:08:06;;;;;;;6.70;1.10;;;2.30;99.90;;;;;;5011508;28;20164;-69
2022/01/20 09:10:37;;;;;;;3.93;1.17;;;2.30;99.90;;;;;;5011501;28;20179;-69
2022/01/20 09:15:48;;;;;;;1.20;1.10;;;2.30;99.90;;;;;;5015211;28;20422;-71
2022/01/20 09:18:14;;;;;;;1.10;0.80;;;2.30;99.90;;;;;;5015557;28;20423;-70
2022/01/20 09:20:41;;;;;;;2.60;0.87;;;2.10;99.90;;;;;;4999491;28;20173;-69
2022/01/20 09:23:07;;;;;;;2.60;2.40;;;2.10;99.90;;;;;;4999180;28;20440;-70
2022/01/20 09:25:33;;;;;;;0.60;0.60;;;2.00;99.90;;;;;;4998303;28;20814;-70
2022/01/20 09:28:00;;;;;;;3.00;1.63;;;2.10;99.90;;;;;;4997455;28;20450;-70
2022/01/20 09:30:27;;;;;;;1.10;1.00;;;2.00;99.90;;;;;;5015179;28;20415;-71
2022/01/20 09:33:11;;;;;;;11.23;1.30;;;2.00;99.90;;;;;;5015233;28;20446;-70
2022/01/20 09:35:38;;;;;;;1.40;1.20;;;2.00;99.90;;;;;;5015240;28;20442;-70
2022/01/20 09:38:05;;;;;;;1.20;1.10;;;2.00;99.90;;;;;;5015137;28;20407;-69
2022/01/20 09:40:32;;;;;;;1.60;1.00;;;2.00;99.90;;;;;;5015155;28;20404;-70
2022/01/20 09:42:58;;;;;;;3.17;0.77;;;2.00;99.90;;;;;;5014807;28;20434;-70
2022/01/20 09:45:23;;;;;;;3.20;2.73;;;2.00;99.90;;;;;;5014873;28;20820;-69
2022/01/20 09:47:49;;;;;;;1.27;1.00;;;2.00;99.90;;;;;;5015274;28;20594;-71
2022/01/20 09:50:19;;;;;;;2.10;1.90;;;2.00;99.90;;;;;;5015518;28;20579;-70
2022/01/20 09:52:49;;;;;;;3.77;1.57;;;2.10;99.90;;;;;;5015241;28;20629;-70
2022/01/20 09:55:15;;;;;;;0.70;0.70;;;2.10;99.90;;;;;;5034154;28;20433;-70
2022/01/20 09:57:41;;;;;;;3.23;1.87;;;2.10;99.90;;;;;;5035144;28;20918;-70
2022/01/20 10:00:12;;;;;;;2.83;1.20;;;2.10;99.90;;;;;;5034855;28;20414;-70
2022/01/20 10:02:55;;;;;;;4.30;1.17;;;2.10;99.90;;;;;;5034650;28;20200;-70
2022/01/20 10:05:29;;;;;;;3.87;1.47;;;2.20;99.90;;;;;;5030230;28;20538;-70
2022/01/20 10:08:00;;;;;;;1.90;1.00;;;2.20;99.90;;;;;;5014482;28;20411;-68
2022/01/20 10:10:39;;;;;;;2.43;1.50;;;2.30;99.90;;;;;;5014924;28;20461;-70
2022/01/20 10:13:07;;;;;;;0.80;0.80;;;2.30;99.90;;;;;;5014573;28;20910;-70
2022/01/20 10:15:32;;;;;;;1.60;1.00;;;2.40;99.90;;;;;;5014500;28;20770;-70
2022/01/20 10:18:13;;;;;;;3.80;1.27;;;2.40;99.90;;;;;;5014394;28;20411;-70
2022/01/20 10:20:54;;;;;;;4.83;1.40;;;2.20;99.90;;;;;;5014382;28;20180;-70
2022/01/20 10:23:28;;;;;;;1.37;0.70;;;2.30;99.90;;;;;;5014467;28;20465;-70
2022/01/20 10:26:22;;;;;;;3.33;1.43;;;2.40;99.90;;;;;;5013966;28;20446;-71
2022/01/20 10:29:08;;;;;;;1.30;1.20;;;2.40;99.90;;;;;;5013507;28;20412;-70
2022/01/20 10:31:36;;;;;;;1.10;0.80;;;2.40;99.90;;;;;;5014552;28;20952;-70
2022/01/20 10:34:05;;;;;;;1.70;0.77;;;2.40;99.90;;;;;;5014074;28;20431;-70
2022/01/20 10:36:37;;;;;;;9.07;1.63;;;2.40;99.90;;;;;;5014127;28;20410;-70
2022/01/20 10:39:02;;;;;;;2.30;1.30;;;2.50;99.90;;;;;;5014097;28;20411;-70
2022/01/20 10:41:30;;;;;;;3.20;0.80;;;2.50;99.90;;;;;;5014027;28;20768;-70
2022/01/20 10:44:22;;;;;;;4.03;1.63;;;2.50;99.90;;;;;;5013777;28;20666;-70
2022/01/20 10:46:53;;;;;;;1.70;1.53;;;2.50;99.90;;;;;;5009891;28;20495;-70
2022/01/20 10:49:20;;;;;;;1.30;0.70;;;2.50;99.90;;;;;;5013802;28;20410;-70
2022/01/20 10:52:01;;;;;;;8.70;2.10;;;2.50;99.90;;;;;;5013640;28;20455;-70
2022/01/20 10:54:44;;;;;;;2.53;1.23;;;2.50;99.90;;;;;;5025707;28;20434;-70
2022/01/20 10:57:11;;;;;;;1.67;0.97;;;2.40;99.90;;;;;;5033569;28;20504;-70
2022/01/20 11:00:08;;;;;;;2.57;0.97;;;2.40;99.90;;;;;;5033320;28;20406;-70
2022/01/20 11:02:33;;;;;;;1.33;1.23;;;2.50;99.90;;;;;;5013263;28;20517;-70
2022/01/20 11:04:59;;;;;;;5.67;1.03;;;2.50;99.90;;;;;;5033454;28;20515;-69
2022/01/20 11:07:27;;;;;;;1.40;1.33;;;2.60;99.90;;;;;;5033435;28;20175;-69
2022/01/20 11:10:00;;;;;;;10.70;1.90;;;2.60;99.90;;;;;;5033197;28;20411;-69
2022/01/20 11:12:26;;;;;;;5.30;1.77;;;2.60;99.90;;;;;;5033001;28;20936;-69
2022/01/20 11:14:52;;;;;;;1.27;1.17;;;2.60;99.90;;;;;;5032841;28;20431;-69
2022/01/20 11:17:23;;;;;;;2.23;1.57;;;2.60;99.90;;;;;;5032995;28;20216;-68
2022/01/20 11:19:49;;;;;;;4.60;0.90;;;2.50;99.90;;;;;;5032996;28;20410;-68
2022/01/20 11:22:16;;;;;;;3.80;1.90;;;2.50;99.90;;;;;;4997249;28;20420;-68
2022/01/20 11:24:43;;;;;;;4.70;1.93;;;2.60;99.90;;;;;;4993221;28;20442;-68
2022/01/20 11:27:11;;;;;;;8.83;2.00;;;2.60;99.90;;;;;;5003579;28;20411;-68
2022/01/20 11:29:48;;;;;;;3.20;1.33;;;2.70;99.90;;;;;;5012642;28;20418;-68
2022/01/20 11:32:25;;;;;;;1.87;1.27;;;2.80;99.90;;;;;;5012969;28;20926;-68
2022/01/20 11:35:10;;;;;;;4.40;1.40;;;2.80;99.90;;;;;;5012695;28;20429;-67
2022/01/20 11:37:39;;;;;;;4.60;2.00;;;3.00;99.90;;;;;;5012416;28;20801;-68
2022/01/20 11:40:20;;;;;;;1.57;1.23;;;3.00;99.90;;;;;;5012841;28;20399;-67
2022/01/20 11:42:57;;;;;;;1.20;0.77;;;3.10;99.90;;;;;;5013039;28;20458;-67
2022/01/20 11:45:32;;;;;;;2.20;0.80;;;3.20;99.90;;;;;;5012718;28;20473;-67
2022/01/20 11:48:10;;;;;;;15.60;2.27;;;3.20;99.90;;;;;;5012537;28;20438;-68
2022/01/20 11:50:35;;;;;;;0.90;0.90;;;3.20;99.90;;;;;;5012807;28;20904;-67
2022/01/20 11:53:27;;;;;;;1.37;0.97;;;3.30;99.90;;;;;;5013523;28;20419;-67
2022/01/20 11:55:54;;;;;;;2.20;0.97;;;3.20;99.90;;;;;;5027395;28;20473;-67
2022/01/20 11:58:23;;;;;;;4.63;1.10;;;3.20;99.90;;;;;;5032141;28;20410;-67
2022/01/20 12:01:06;;;;;;;1.33;0.93;;;3.20;99.90;;;;;;5032561;28;20414;-67
2022/01/20 12:03:33;;;;;;;1.10;1.00;;;3.30;99.90;;;;;;5032022;28;20477;-67
2022/01/20 12:06:12;;;;;;;1.37;1.03;;;3.30;99.90;;;;;;5022583;28;20582;-68
2022/01/20 12:08:50;;;;;;;0.83;0.83;;;3.30;99.90;;;;;;5012360;28;20490;-67
2022/01/20 12:11:16;;;;;;;3.63;1.20;;;3.30;99.90;;;;;;5012367;28;21019;-67
2022/01/20 12:13:46;;;;;;;1.60;0.90;;;3.40;99.90;;;;;;5012322;28;20510;-68
2022/01/20 12:16:18;;;;;;;1.77;1.13;;;3.20;99.90;;;;;;5012157;28;20226;-69
2022/01/20 12:18:50;;;;;;;2.10;1.07;;;3.30;99.90;;;;;;5012664;28;20400;-67
2022/01/20 12:21:16;;;;;;;3.27;0.70;;;3.30;99.90;;;;;;5012358;28;20411;-68
2022/01/20 12:23:43;;;;;;;6.70;0.93;;;3.30;99.90;;;;;;5012163;28;20423;-67
2022/01/20 12:26:08;;;;;;;1.30;1.20;;;3.40;99.90;;;;;;5011961;28;20454;-68
2022/01/20 12:28:34;;;;;;;8.23;1.17;;;3.40;99.90;;;;;;5011974;28;20494;-67
2022/01/20 12:31:01;;;;;;;0.80;0.80;;;3.50;99.90;;;;;;5011955;28;20169;-67
2022/01/20 12:33:28;;;;;;;1.73;1.20;;;3.50;99.90;;;;;;5011763;28;20275;-68
2022/01/20 12:35:56;;;;;;;0.80;0.80;;;3.50;99.90;;;;;;5012154;28;20411;-68
2022/01/20 12:38:29;;;;;;;1.77;1.27;;;3.50;99.90;;;;;;5012101;28;20414;-67
2022/01/20 12:41:11;;;;;;;3.47;0.90;;;3.50;99.90;;;;;;5012052;28;20874;-68
2022/01/20 12:43:59;;;;;;;6.27;1.17;;;3.40;99.90;;;;;;5012047;28;20426;-67
2022/01/20 12:46:30;;;;;;;0.80;0.80;;;3.40;99.90;;;;;;5011802;28;20442;-67
2022/01/20 12:49:08;;;;;;;1.03;1.03;;;3.30;99.90;;;;;;5011049;28;20469;-67
2022/01/20 12:51:53;;;;;;;0.70;0.70;;;3.20;99.90;;;;;;5012151;28;20449;-67
2022/01/20 12:54:26;;;;;;;0.70;0.70;;;3.20;99.90;;;;;;5023267;28;20434;-67
2022/01/20 12:56:54;;;;;;;1.73;0.87;;;3.20;99.90;;;;;;5031665;28;20787;-67
2022/01/20 12:59:21;;;;;;;3.53;0.83;;;3.30;99.90;;;;;;5016276;28;20456;-69
2022/01/20 13:01:48;;;;;;;0.70;0.70;;;3.20;99.90;;;;;;5011688;28;20411;-67
2022/01/20 13:04:16;;;;;;;1.03;0.90;;;3.40;99.90;;;;;;5011668;28;20450;-67
2022/01/20 13:06:46;;;;;;;0.80;0.80;;;3.40;99.90;;;;;;5011683;28;20501;-67
2022/01/20 13:09:12;;;;;;;1.07;0.70;;;3.40;99.90;;;;;;5012211;28;20395;-67
2022/01/20 13:11:53;;;;;;;1.23;1.23;;;3.40;99.90;;;;;;5011962;28;20443;-68
2022/01/20 13:14:22;;;;;;;1.03;0.93;;;3.30;99.90;;;;;;5011783;28;20489;-68
2022/01/20 13:16:53;;;;;;;4.30;1.47;;;3.40;99.90;;;;;;5012372;28;20796;-68
2022/01/20 13:19:19;;;;;;;1.40;1.30;;;3.40;99.90;;;;;;5012589;28;20446;-69
2022/01/20 13:21:51;;;;;;;1.47;1.20;;;3.40;99.90;;;;;;5011319;28;20407;-68
2022/01/20 13:24:25;;;;;;;1.10;0.97;;;3.40;99.90;;;;;;5012539;28;20438;-68
2022/01/20 13:26:53;;;;;;;5.10;1.20;;;3.30;99.90;;;;;;5011524;28;20462;-68
2022/01/20 13:29:20;;;;;;;1.60;1.00;;;3.20;99.90;;;;;;5011488;28;20414;-68
2022/01/20 13:31:48;;;;;;;4.37;1.87;;;3.10;99.90;;;;;;5008820;28;20415;-68
2022/01/20 13:34:18;;;;;;;0.97;0.70;;;3.10;99.90;;;;;;4996574;28;20589;-68
2022/01/20 13:36:51;;;;;;;1.87;1.07;;;3.10;99.90;;;;;;4991679;28;20574;-68
2022/01/20 13:39:36;;;;;;;1.37;1.27;;;3.10;99.90;;;;;;5002810;28;20504;-69
2022/01/20 13:42:04;;;;;;;4.50;1.50;;;3.00;99.90;;;;;;5011347;28;20413;-69
2022/01/20 13:47:14;;;;;;;3.80;1.30;;;2.90;99.90;;;;;;5011760;28;20406;-68
2022/01/20 13:50:14;;;;;;;0.80;0.80;;;2.90;99.90;;;;;;5011234;28;20403;-67
2022/01/20 13:52:39;;;;;;;0.70;0.70;;;2.70;99.90;;;;;;4996869;28;20187;-67
2022/01/20 13:55:24;;;;;;;2.93;1.47;;;2.70;99.90;;;;;;5028503;28;20418;-67
2022/01/20 13:57:50;;;;;;;1.17;0.87;;;2.60;99.90;;;;;;5028436;28;20183;-67
2022/01/20 14:00:19;;;;;;;1.67;1.00;;;2.60;99.90;;;;;;5012303;28;20410;-67
2022/01/20 14:02:47;;;;;;;7.27;1.20;;;2.50;99.90;;;;;;5014431;28;20493;-69
2022/01/20 14:05:14;;;;;;;0.80;0.80;;;2.50;99.90;;;;;;5014763;28;20470;-73
2022/01/20 14:07:39;;;;;;;3.10;1.43;;;2.40;99.90;;;;;;5014838;28;20449;-76